Time;durP1;ratioP1;P1;durP2;ratioP2;P2;SDS_P1;SDS_P2;PMS_P1;PMS_P2;Temp;Humidity;BMP_temperature;BMP_pressure;BME280_temperature;BME280_humidity;BME280_pressure;Samples;Min_cycle;Max_cycle;Signal;HPM_P1;HPM_P2
2021/08/19 00:00:24;;;;;;;;;;;17.20;99.90;;;;;;5059190;28;19917;-81
2021/08/19 00:02:49;;;;;;;;;;;17.20;99.90;;;;;;5058933;28;20372;-80
2021/08/19 00:05:14;;;;;;;;;;;17.20;99.90;;;;;;5059034;28;20281;-81
2021/08/19 00:07:40;;;;;;;;;;;17.20;99.90;;;;;;5058514;28;19912;-81
2021/08/19 00:10:06;;;;;;;;;;;17.20;99.90;;;;;;5058397;28;19927;-80
2021/08/19 00:12:31;;;;;;;;;;;17.20;99.90;;;;;;5058960;28;19919;-81
2021/08/19 00:14:57;;;;;;;;;;;17.20;99.90;;;;;;5058790;28;19915;-80
2021/08/19 00:17:22;;;;;;;;;;;17.20;99.90;;;;;;5060416;28;19913;-80
2021/08/19 00:19:48;;;;;;;;;;;17.10;99.90;;;;;;5091938;28;20369;-80
2021/08/19 00:22:13;;;;;;;;;;;17.10;99.90;;;;;;5058052;28;19905;-80
2021/08/19 00:24:39;;;;;;;;;;;17.20;99.90;;;;;;5058399;28;19912;-80
2021/08/19 00:27:04;;;;;;;;;;;17.20;99.90;;;;;;5058298;28;20361;-80
2021/08/19 00:29:30;;;;;;;;;;;17.20;99.90;;;;;;5059943;28;20257;-80
2021/08/19 00:31:55;;;;;;;;;;;17.30;99.90;;;;;;5057993;28;19905;-80
2021/08/19 00:34:21;;;;;;;;;;;17.30;99.90;;;;;;5060175;28;19976;-80
2021/08/19 00:36:46;;;;;;;;;;;17.30;99.90;;;;;;5058483;28;19908;-80
2021/08/19 00:39:12;;;;;;;;;;;17.30;99.90;;;;;;5058414;28;19904;-81
2021/08/19 00:41:37;;;;;;;;;;;17.30;99.90;;;;;;5060156;28;20266;-81
2021/08/19 00:44:06;;;;;;;;;;;17.30;99.90;;;;;;5058824;28;19909;-80
2021/08/19 00:46:35;;;;;;;;;;;17.30;99.90;;;;;;5059947;28;20155;-80
2021/08/19 00:49:04;;;;;;;;;;;17.30;99.90;;;;;;5058263;28;19943;-80
2021/08/19 00:51:34;;;;;;;;;;;17.30;99.90;;;;;;5058588;28;19956;-80
2021/08/19 00:54:00;;;;;;;;;;;17.30;99.90;;;;;;5058830;28;20106;-80
2021/08/19 00:56:26;;;;;;;;;;;17.30;99.90;;;;;;5057488;28;19905;-80
2021/08/19 00:58:51;;;;;;;;;;;17.20;99.90;;;;;;5057576;28;20281;-80
2021/08/19 01:01:17;;;;;;;;;;;17.20;99.90;;;;;;5057178;28;19916;-81
2021/08/19 01:03:42;;;;;;;;;;;17.20;99.90;;;;;;5056951;28;19904;-80
2021/08/19 01:06:08;;;;;;;;;;;17.20;99.90;;;;;;5056033;28;19971;-80
2021/08/19 01:08:34;;;;;;;;;;;17.20;99.90;;;;;;5057979;28;19954;-81
2021/08/19 01:11:01;;;;;;;;;;;17.20;99.90;;;;;;5056491;28;19904;-80
2021/08/19 01:13:27;;;;;;;;;;;17.20;99.90;;;;;;5058798;28;19905;-81
2021/08/19 01:15:52;;;;;;;;;;;17.20;99.90;;;;;;5057632;28;19913;-80
2021/08/19 01:18:18;;;;;;;;;;;17.10;99.90;;;;;;5056877;28;20262;-80
2021/08/19 01:20:43;;;;;;;;;;;17.10;99.90;;;;;;5057054;28;19916;-80
2021/08/19 01:23:09;;;;;;;;;;;17.10;99.90;;;;;;5057207;28;19909;-80
2021/08/19 01:25:34;;;;;;;;;;;17.10;99.90;;;;;;5057127;28;20336;-81
2021/08/19 01:28:00;;;;;;;;;;;17.10;99.90;;;;;;5058507;28;19950;-80
2021/08/19 01:30:26;;;;;;;;;;;17.10;99.90;;;;;;5056849;28;19932;-80
2021/08/19 01:32:52;;;;;;;;;;;17.20;99.90;;;;;;5056707;28;19912;-81
2021/08/19 01:35:18;;;;;;;;;;;17.20;99.90;;;;;;5056524;28;19911;-80
2021/08/19 01:37:44;;;;;;;;;;;17.10;99.90;;;;;;5056632;28;19912;-80
2021/08/19 01:40:10;;;;;;;;;;;17.20;99.90;;;;;;5056357;28;19967;-81
2021/08/19 01:42:35;;;;;;;;;;;17.10;99.90;;;;;;5056605;28;19915;-80
2021/08/19 01:45:01;;;;;;;;;;;17.10;99.90;;;;;;5056481;28;19912;-81
2021/08/19 01:47:26;;;;;;;;;;;17.10;99.90;;;;;;5056721;28;19905;-81
2021/08/19 01:49:52;;;;;;;;;;;17.00;99.90;;;;;;5057835;28;19904;-81
2021/08/19 01:52:17;;;;;;;;;;;17.00;99.90;;;;;;5056750;28;19958;-81
2021/08/19 01:54:43;;;;;;;;;;;17.10;99.90;;;;;;5056810;28;20273;-81
2021/08/19 01:57:08;;;;;;;;;;;17.10;99.90;;;;;;5056672;28;19945;-80
2021/08/19 01:59:34;;;;;;;;;;;17.10;99.90;;;;;;5056151;28;20285;-80
2021/08/19 02:02:02;;;;;;;;;;;17.10;99.90;;;;;;5056251;28;20362;-81
2021/08/19 02:04:29;;;;;;;;;;;17.10;99.90;;;;;;5057137;28;19923;-80
2021/08/19 02:06:54;;;;;;;;;;;17.10;99.90;;;;;;5055790;28;20407;-80
2021/08/19 02:09:20;;;;;;;;;;;17.10;99.90;;;;;;5056233;28;19905;-80
2021/08/19 02:11:45;;;;;;;;;;;17.10;99.90;;;;;;5055396;28;19904;-80
2021/08/19 02:14:11;;;;;;;;;;;17.10;99.90;;;;;;5059588;28;19912;-80
2021/08/19 02:16:36;;;;;;;;;;;17.00;99.90;;;;;;5054830;28;20000;-80
2021/08/19 02:19:02;;;;;;;;;;;17.10;99.90;;;;;;5052585;28;19909;-80
2021/08/19 02:21:28;;;;;;;;;;;17.10;99.90;;;;;;5053082;28;19908;-80
2021/08/19 02:23:53;;;;;;;;;;;17.10;99.90;;;;;;5037084;28;19921;-80
2021/08/19 02:26:19;;;;;;;;;;;17.00;99.90;;;;;;5054538;28;19912;-80
2021/08/19 02:28:44;;;;;;;;;;;17.00;99.90;;;;;;5054986;28;19912;-80
2021/08/19 02:31:10;;;;;;;;;;;17.00;99.90;;;;;;5053711;28;19970;-80
2021/08/19 02:33:35;;;;;;;;;;;17.00;99.90;;;;;;5053476;28;19931;-80
2021/08/19 02:36:01;;;;;;;;;;;17.00;99.90;;;;;;5053121;28;19904;-80
2021/08/19 02:38:26;;;;;;;;;;;17.10;99.90;;;;;;5053452;28;19905;-80
2021/08/19 02:40:52;;;;;;;;;;;17.00;99.90;;;;;;5053555;28;19905;-80
2021/08/19 02:43:17;;;;;;;;;;;17.00;99.90;;;;;;5055027;28;19909;-80
2021/08/19 02:45:43;;;;;;;;;;;17.00;99.90;;;;;;5054324;28;19909;-80
2021/08/19 02:48:08;;;;;;;;;;;17.10;99.90;;;;;;5054235;28;19904;-80
2021/08/19 02:50:34;;;;;;;;;;;17.00;99.90;;;;;;5055767;28;19905;-80
2021/08/19 02:52:59;;;;;;;;;;;16.90;99.90;;;;;;5054940;28;19944;-81
2021/08/19 02:55:25;;;;;;;;;;;16.90;99.90;;;;;;5054398;28;19905;-80
2021/08/19 02:57:51;;;;;;;;;;;17.00;99.90;;;;;;5054638;28;19909;-80
2021/08/19 03:00:16;;;;;;;;;;;17.00;99.90;;;;;;5054781;28;19915;-80
2021/08/19 03:02:42;;;;;;;;;;;17.00;99.90;;;;;;5054299;28;19944;-80
2021/08/19 03:05:07;;;;;;;;;;;17.00;99.90;;;;;;5055324;28;19912;-80
2021/08/19 03:07:33;;;;;;;;;;;17.00;99.90;;;;;;5055045;28;20258;-80
2021/08/19 03:09:59;;;;;;;;;;;17.00;99.90;;;;;;5056252;28;19912;-80
2021/08/19 03:12:25;;;;;;;;;;;17.00;99.90;;;;;;5055628;28;19905;-81
2021/08/19 03:14:51;;;;;;;;;;;17.00;99.90;;;;;;5054598;28;19912;-80
2021/08/19 03:17:17;;;;;;;;;;;17.00;99.90;;;;;;5052907;28;19913;-80
2021/08/19 03:19:42;;;;;;;;;;;17.00;99.90;;;;;;5053947;28;20429;-81
2021/08/19 03:22:09;;;;;;;;;;;17.00;99.90;;;;;;5053815;28;19909;-80
2021/08/19 03:24:35;;;;;;;;;;;16.90;99.90;;;;;;5058056;28;19913;-80
2021/08/19 03:27:01;;;;;;;;;;;16.90;99.90;;;;;;5058092;28;20004;-81
2021/08/19 03:29:27;;;;;;;;;;;16.90;99.90;;;;;;5058112;28;19943;-80
2021/08/19 03:31:52;;;;;;;;;;;16.90;99.90;;;;;;5059126;28;19905;-81
2021/08/19 03:34:18;;;;;;;;;;;16.90;99.90;;;;;;5058329;28;19936;-81
2021/08/19 03:36:43;;;;;;;;;;;16.90;99.90;;;;;;5058242;28;19905;-80
2021/08/19 03:39:09;;;;;;;;;;;16.80;99.90;;;;;;5058763;28;19905;-80
2021/08/19 03:41:35;;;;;;;;;;;16.90;99.90;;;;;;5059235;28;20363;-80
2021/08/19 03:44:01;;;;;;;;;;;16.80;99.90;;;;;;5058424;28;19905;-80
2021/08/19 03:46:26;;;;;;;;;;;16.80;99.90;;;;;;5058335;28;19942;-80
2021/08/19 03:48:52;;;;;;;;;;;16.80;99.90;;;;;;5059903;28;20421;-80
2021/08/19 03:51:17;;;;;;;;;;;16.80;99.90;;;;;;5059357;28;20122;-80
2021/08/19 03:53:43;;;;;;;;;;;16.90;99.90;;;;;;5058850;28;20011;-80
2021/08/19 03:56:08;;;;;;;;;;;16.90;99.90;;;;;;5058219;28;20007;-80
2021/08/19 03:58:34;;;;;;;;;;;16.80;99.90;;;;;;5058581;28;19912;-81
2021/08/19 04:01:01;;;;;;;;;;;16.80;99.90;;;;;;5058157;28;19924;-80
2021/08/19 04:03:27;;;;;;;;;;;16.80;99.90;;;;;;5058829;28;19960;-81
2021/08/19 04:05:52;;;;;;;;;;;16.80;99.90;;;;;;5041226;28;19917;-81
2021/08/19 04:08:18;;;;;;;;;;;16.80;99.90;;;;;;5057977;28;19915;-80
2021/08/19 04:10:43;;;;;;;;;;;16.70;99.90;;;;;;5058588;28;19909;-81
2021/08/19 04:13:09;;;;;;;;;;;16.70;99.90;;;;;;5059321;28;19955;-81
2021/08/19 04:15:34;;;;;;;;;;;16.70;99.90;;;;;;5058322;28;19921;-80
2021/08/19 04:18:00;;;;;;;;;;;16.70;99.90;;;;;;5058259;28;19991;-80
2021/08/19 04:20:26;;;;;;;;;;;16.70;99.90;;;;;;5058266;28;19907;-80
2021/08/19 04:22:51;;;;;;;;;;;16.70;99.90;;;;;;5059492;28;19980;-80
2021/08/19 04:25:17;;;;;;;;;;;16.60;99.90;;;;;;5058422;28;19980;-80
2021/08/19 04:27:42;;;;;;;;;;;16.60;99.90;;;;;;5058538;28;19995;-80
2021/08/19 04:30:08;;;;;;;;;;;16.60;99.90;;;;;;5057858;28;20424;-80
2021/08/19 04:32:34;;;;;;;;;;;16.60;99.90;;;;;;5057867;28;19908;-81
2021/08/19 04:35:00;;;;;;;;;;;16.60;99.90;;;;;;5056694;28;19911;-81
2021/08/19 04:37:26;;;;;;;;;;;16.60;99.90;;;;;;5057723;28;19936;-81
2021/08/19 04:39:51;;;;;;;;;;;16.70;99.90;;;;;;5057644;28;19948;-80
2021/08/19 04:42:17;;;;;;;;;;;16.70;99.90;;;;;;5057410;28;20000;-81
2021/08/19 04:44:42;;;;;;;;;;;16.70;99.90;;;;;;5059148;28;19916;-80
2021/08/19 04:47:08;;;;;;;;;;;16.70;99.90;;;;;;5058231;28;19962;-82
2021/08/19 04:49:33;;;;;;;;;;;16.60;99.90;;;;;;5057654;28;20297;-81
2021/08/19 04:51:59;;;;;;;;;;;16.60;99.90;;;;;;5059888;28;20479;-82
2021/08/19 04:54:24;;;;;;;;;;;16.70;99.90;;;;;;5058211;28;20370;-82
2021/08/19 04:56:50;;;;;;;;;;;16.60;99.90;;;;;;5058820;28;19914;-82
2021/08/19 04:59:16;;;;;;;;;;;16.60;99.90;;;;;;5058163;28;20003;-82
2021/08/19 05:01:42;;;;;;;;;;;16.60;99.90;;;;;;5058121;28;20392;-82
2021/08/19 05:04:07;;;;;;;;;;;16.60;99.90;;;;;;5056790;28;20289;-82
2021/08/19 05:06:33;;;;;;;;;;;16.60;99.90;;;;;;5057153;28;20003;-82
2021/08/19 05:09:00;;;;;;;;;;;16.60;99.90;;;;;;5056144;28;20273;-79
2021/08/19 05:11:26;;;;;;;;;;;16.60;99.90;;;;;;5055302;28;19909;-79
2021/08/19 05:13:52;;;;;;;;;;;16.60;99.90;;;;;;5055865;28;20345;-79
2021/08/19 05:16:18;;;;;;;;;;;16.60;99.90;;;;;;5055837;28;19961;-83
2021/08/19 05:18:44;;;;;;;;;;;16.60;99.90;;;;;;5058493;28;19905;-82
2021/08/19 05:21:10;;;;;;;;;;;16.60;99.90;;;;;;5056588;28;20394;-79
2021/08/19 05:23:35;;;;;;;;;;;16.60;99.90;;;;;;5055840;28;19915;-79
2021/08/19 05:26:01;;;;;;;;;;;16.60;99.90;;;;;;5062168;28;19912;-79
2021/08/19 05:28:26;;;;;;;;;;;16.60;99.90;;;;;;5054870;28;19905;-81
2021/08/19 05:30:52;;;;;;;;;;;16.50;99.90;;;;;;5053385;28;20277;-79
2021/08/19 05:33:17;;;;;;;;;;;16.60;99.90;;;;;;5052880;28;20232;-79
2021/08/19 05:35:43;;;;;;;;;;;16.70;99.90;;;;;;5054157;28;19904;-79
2021/08/19 05:38:08;;;;;;;;;;;16.70;99.90;;;;;;5053420;28;19932;-80
2021/08/19 05:40:34;;;;;;;;;;;16.80;99.90;;;;;;5054283;28;19911;-82
2021/08/19 05:42:59;;;;;;;;;;;16.70;99.90;;;;;;5054874;28;19911;-80
2021/08/19 05:45:25;;;;;;;;;;;16.70;99.90;;;;;;5054414;28;19908;-79
2021/08/19 05:47:50;;;;;;;;;;;16.70;99.90;;;;;;5054149;28;19913;-79
2021/08/19 05:50:16;;;;;;;;;;;16.70;99.90;;;;;;5054053;28;19908;-80
2021/08/19 05:52:43;;;;;;;;;;;16.80;99.90;;;;;;5053170;28;20320;-79
2021/08/19 05:55:08;;;;;;;;;;;16.80;99.90;;;;;;5054849;28;19966;-79
2021/08/19 05:57:34;;;;;;;;;;;16.90;99.90;;;;;;5054885;28;19905;-80
2021/08/19 05:59:59;;;;;;;;;;;16.90;99.90;;;;;;5054537;28;19958;-79
2021/08/19 06:02:25;;;;;;;;;;;16.90;99.90;;;;;;5053698;28;19993;-79
2021/08/19 06:04:50;;;;;;;;;;;16.90;99.90;;;;;;5055645;28;20270;-79
2021/08/19 06:07:16;;;;;;;;;;;17.00;99.90;;;;;;5053660;28;19912;-79
2021/08/19 06:09:41;;;;;;;;;;;17.00;99.90;;;;;;5050786;28;20226;-79
2021/08/19 06:12:07;;;;;;;;;;;17.10;99.90;;;;;;5052926;28;19958;-80
2021/08/19 06:14:32;;;;;;;;;;;17.10;99.90;;;;;;5052612;28;19944;-80
2021/08/19 06:16:58;;;;;;;;;;;17.10;99.90;;;;;;5054054;28;19920;-79
2021/08/19 06:19:24;;;;;;;;;;;17.20;99.90;;;;;;5054165;28;19952;-79
2021/08/19 06:21:50;;;;;;;;;;;17.30;99.90;;;;;;5070386;28;19912;-79
2021/08/19 06:24:15;;;;;;;;;;;17.40;99.90;;;;;;5053963;28;19916;-79
2021/08/19 06:26:41;;;;;;;;;;;17.40;99.90;;;;;;5053740;28;20390;-79
2021/08/19 06:29:07;;;;;;;;;;;17.40;99.90;;;;;;5054030;28;19952;-79
2021/08/19 06:31:33;;;;;;;;;;;17.40;99.90;;;;;;5052505;28;19915;-80
2021/08/19 06:33:59;;;;;;;;;;;17.20;99.90;;;;;;5043698;28;19916;-80
2021/08/19 06:36:24;;;;;;;;;;;17.10;99.90;;;;;;5049351;28;19916;-79
2021/08/19 06:38:53;;;;;;;;;;;17.10;99.90;;;;;;5052363;28;20506;-79
2021/08/19 06:41:19;;;;;;;;;;;17.10;99.90;;;;;;5068156;28;20281;-80
2021/08/19 06:43:45;;;;;;;;;;;17.20;99.90;;;;;;5069851;28;19999;-80
2021/08/19 06:46:10;;;;;;;;;;;17.10;99.90;;;;;;5051330;28;19959;-80
2021/08/19 06:48:36;;;;;;;;;;;17.20;99.90;;;;;;5052866;28;19908;-80
2021/08/19 06:51:01;;;;;;;;;;;17.30;99.90;;;;;;5065435;28;20125;-79
2021/08/19 06:53:27;;;;;;;;;;;17.30;99.90;;;;;;5047518;28;20274;-79
2021/08/19 06:55:52;;;;;;;;;;;17.20;99.90;;;;;;5041287;28;19912;-80
2021/08/19 06:58:18;;;;;;;;;;;17.00;99.90;;;;;;5047086;28;19971;-80
2021/08/19 07:00:44;;;;;;;;;;;17.10;99.90;;;;;;5053055;28;19928;-80
2021/08/19 07:03:12;;;;;;;;;;;17.20;99.90;;;;;;5045508;28;19906;-80
2021/08/19 07:05:37;;;;;;;;;;;17.20;99.90;;;;;;5047566;28;19920;-80
2021/08/19 07:08:03;;;;;;;;;;;17.20;99.90;;;;;;5056933;28;19908;-80
2021/08/19 07:10:28;;;;;;;;;;;17.50;99.90;;;;;;5052266;28;20296;-79
2021/08/19 07:12:54;;;;;;;;;;;17.60;99.90;;;;;;5056935;28;19912;-80
2021/08/19 07:15:20;;;;;;;;;;;17.80;99.90;;;;;;5056004;28;19909;-79
2021/08/19 07:17:45;;;;;;;;;;;17.90;99.90;;;;;;5057268;28;20003;-80
2021/08/19 07:20:11;;;;;;;;;;;17.90;99.90;;;;;;5056127;28;19971;-80
2021/08/19 07:22:36;;;;;;;;;;;17.90;99.90;;;;;;5056125;28;19931;-80
2021/08/19 07:25:02;;;;;;;;;;;18.00;99.90;;;;;;5071383;28;19921;-80
2021/08/19 07:27:28;;;;;;;;;;;18.20;99.90;;;;;;5054805;28;19920;-80
2021/08/19 07:29:53;;;;;;;;;;;18.30;99.90;;;;;;5055953;28;19935;-80
2021/08/19 07:32:20;;;;;;;;;;;18.10;99.90;;;;;;5054459;28;19913;-80
2021/08/19 07:34:47;;;;;;;;;;;18.00;99.90;;;;;;5070794;28;19909;-80
2021/08/19 07:37:12;;;;;;;;;;;18.00;99.90;;;;;;5057090;28;19912;-79
2021/08/19 07:39:38;;;;;;;;;;;17.90;99.90;;;;;;5052577;28;19913;-79
2021/08/19 07:42:03;;;;;;;;;;;18.00;99.90;;;;;;5056519;28;20302;-80
2021/08/19 07:44:29;;;;;;;;;;;18.10;99.90;;;;;;5054452;28;20357;-80
2021/08/19 07:46:54;;;;;;;;;;;18.20;99.90;;;;;;5052432;28;19923;-79
2021/08/19 07:49:21;;;;;;;;;;;18.30;99.90;;;;;;5070834;28;19968;-80
2021/08/19 07:51:47;;;;;;;;;;;18.50;99.90;;;;;;5055661;28;19919;-80
2021/08/19 07:54:13;;;;;;;;;;;18.70;99.90;;;;;;5072287;28;19946;-80
2021/08/19 07:56:38;;;;;;;;;;;19.40;99.90;;;;;;5054995;28;19916;-80
2021/08/19 07:59:04;;;;;;;;;;;19.30;99.90;;;;;;5057562;28;20306;-80
2021/08/19 08:01:29;;;;;;;;;;;19.30;99.90;;;;;;5057998;28;19995;-79
2021/08/19 08:03:55;;;;;;;;;;;19.40;99.90;;;;;;5055345;28;20381;-80
2021/08/19 08:06:20;;;;;;;;;;;19.60;99.90;;;;;;5068032;28;19909;-79
2021/08/19 08:08:46;;;;;;;;;;;19.20;99.90;;;;;;5054962;28;19913;-80
2021/08/19 08:11:12;;;;;;;;;;;18.90;99.90;;;;;;5051339;28;19916;-79
2021/08/19 08:13:37;;;;;;;;;;;18.70;99.90;;;;;;5054572;28;20285;-79
2021/08/19 08:16:03;;;;;;;;;;;18.50;99.90;;;;;;5051909;28;19909;-80
2021/08/19 08:18:29;;;;;;;;;;;18.30;99.90;;;;;;5055550;28;19924;-80
2021/08/19 08:20:57;;;;;;;;;;;18.10;99.90;;;;;;5055445;28;20374;-81
2021/08/19 08:23:24;;;;;;;;;;;18.00;99.90;;;;;;5050221;28;19920;-80
2021/08/19 08:25:49;;;;;;;;;;;17.90;99.90;;;;;;5049934;28;19974;-80
2021/08/19 08:28:20;;;;;;;;;;;17.90;99.90;;;;;;5052917;28;19944;-79
2021/08/19 08:30:46;;;;;;;;;;;18.00;99.90;;;;;;5050407;28;19917;-80
2021/08/19 08:33:12;;;;;;;;;;;18.10;99.90;;;;;;5050822;28;20293;-80
2021/08/19 08:35:38;;;;;;;;;;;18.00;99.90;;;;;;5042288;28;19909;-80
2021/08/19 08:38:06;;;;;;;;;;;18.10;99.90;;;;;;5055937;28;19916;-80
2021/08/19 08:40:36;;;;;;;;;;;18.10;99.90;;;;;;5047620;28;20328;-79
2021/08/19 08:43:02;;;;;;;;;;;18.10;99.90;;;;;;5051747;28;19909;-79
2021/08/19 08:45:28;;;;;;;;;;;18.10;99.90;;;;;;5052772;28;19973;-79
2021/08/19 08:47:54;;;;;;;;;;;18.20;99.90;;;;;;5050452;28;20008;-79
2021/08/19 08:50:19;;;;;;;;;;;18.20;99.90;;;;;;5051176;28;19975;-80
2021/08/19 08:52:45;;;;;;;;;;;18.20;99.90;;;;;;5051481;28;20277;-81
2021/08/19 08:55:10;;;;;;;;;;;18.20;99.90;;;;;;5046506;28;19909;-80
2021/08/19 08:57:37;;;;;;;;;;;18.20;99.90;;;;;;5054622;28;19916;-80
2021/08/19 09:00:04;;;;;;;;;;;18.40;99.90;;;;;;5056683;28;20341;-81
2021/08/19 09:02:29;;;;;;;;;;;18.60;99.90;;;;;;5053040;28;19962;-80
2021/08/19 09:05:14;;;;;;;;;;;18.90;99.90;;;;;;5056393;28;19913;-80
2021/08/19 09:07:40;;;;;;;;;;;18.90;99.90;;;;;;5054626;28;20011;-80
2021/08/19 09:10:09;;;;;;;;;;;19.30;99.90;;;;;;5053472;28;19909;-80
2021/08/19 09:12:38;;;;;;;;;;;19.50;99.90;;;;;;5048075;28;19908;-80
2021/08/19 09:15:08;;;;;;;;;;;19.80;99.90;;;;;;5057784;28;19939;-81
2021/08/19 09:17:44;;;;;;;;;;;19.80;99.90;;;;;;5053408;28;20385;-81
2021/08/19 09:20:11;;;;;;;;;;;19.80;99.90;;;;;;5056573;28;20460;-81
2021/08/19 09:22:56;;;;;;;;;;;19.80;99.90;;;;;;5054375;28;19909;-81
2021/08/19 09:25:32;;;;;;;;;;;19.70;99.90;;;;;;5058987;28;19917;-81
2021/08/19 09:28:16;;;;;;;;;;;19.90;99.90;;;;;;5041660;28;19916;-81
2021/08/19 09:30:44;;;;;;;;;;;20.20;99.90;;;;;;5057949;28;20014;-80
2021/08/19 09:33:09;;;;;;;;;;;20.60;99.90;;;;;;5048813;28;19913;-80
2021/08/19 09:35:41;;;;;;;;;;;20.70;99.90;;;;;;5049880;28;19916;-80
2021/08/19 09:38:11;;;;;;;;;;;20.40;99.90;;;;;;5050961;28;19992;-82
2021/08/19 09:40:37;;;;;;;;;;;20.20;99.90;;;;;;5055156;28;19968;-81
2021/08/19 09:43:02;;;;;;;;;;;20.30;99.90;;;;;;5056272;28;19912;-81
2021/08/19 09:45:28;;;;;;;;;;;20.40;99.90;;;;;;5056809;28;20357;-81
2021/08/19 09:48:05;;;;;;;;;;;20.30;99.90;;;;;;5049810;28;19971;-81
2021/08/19 09:50:30;;;;;;;;;;;20.50;99.90;;;;;;5054103;28;19909;-81
2021/08/19 09:53:12;;;;;;;;;;;20.70;99.90;;;;;;5041327;28;20353;-81
2021/08/19 09:55:38;;;;;;;;;;;20.80;99.90;;;;;;5040650;28;19905;-82
2021/08/19 09:58:03;;;;;;;;;;;21.10;99.90;;;;;;5052784;28;19912;-81
2021/08/19 10:00:29;;;;;;;;;;;21.20;99.90;;;;;;5050798;28;19913;-81
2021/08/19 10:02:55;;;;;;;;;;;21.00;99.90;;;;;;5051601;28;19940;-82
2021/08/19 10:05:23;;;;;;;;;;;20.30;99.90;;;;;;5054434;28;20353;-80
2021/08/19 10:07:51;;;;;;;;;;;19.90;99.90;;;;;;5055246;28;19919;-80
2021/08/19 10:10:16;;;;;;;;;;;20.10;99.90;;;;;;5051335;28;19915;-80
2021/08/19 10:12:43;;;;;;;;;;;20.60;99.90;;;;;;5072636;28;20350;-80
2021/08/19 10:15:12;;;;;;;;;;;21.00;99.90;;;;;;5056183;28;19913;-80
2021/08/19 10:17:39;;;;;;;;;;;21.20;99.90;;;;;;5055084;28;20293;-80
2021/08/19 10:20:06;;;;;;;;;;;20.80;99.90;;;;;;5071605;28;19909;-81
2021/08/19 10:22:33;;;;;;;;;;;20.10;99.90;;;;;;5055979;28;19919;-80
2021/08/19 10:24:59;;;;;;;;;;;19.70;99.90;;;;;;5052353;28;19921;-80
2021/08/19 10:27:26;;;;;;;;;;;19.20;99.90;;;;;;5045859;28;20390;-80
2021/08/19 10:29:59;;;;;;;;;;;18.90;99.90;;;;;;5049955;28;19939;-80
2021/08/19 10:32:35;;;;;;;;;;;19.00;99.90;;;;;;5053661;28;19912;-80
2021/08/19 10:35:06;;;;;;;;;;;19.10;99.90;;;;;;5049265;28;19913;-79
2021/08/19 10:37:47;;;;;;;;;;;19.20;99.90;;;;;;5054236;28;20365;-80
2021/08/19 10:40:22;;;;;;;;;;;19.40;99.90;;;;;;5050095;28;19970;-80
2021/08/19 10:42:53;;;;;;;;;;;19.80;99.90;;;;;;5050330;28;19915;-79
2021/08/19 10:45:28;;;;;;;;;;;20.00;99.90;;;;;;5049177;28;19939;-80
2021/08/19 10:48:00;;;;;;;;;;;19.50;99.90;;;;;;5048147;28;19952;-80
2021/08/19 10:50:27;;;;;;;;;;;19.20;99.90;;;;;;5055591;28;19948;-81
2021/08/19 10:52:53;;;;;;;;;;;19.20;99.90;;;;;;5046374;28;19940;-79
2021/08/19 10:55:19;;;;;;;;;;;19.40;99.90;;;;;;5046793;28;20320;-79
2021/08/19 10:57:46;;;;;;;;;;;19.20;99.90;;;;;;5070969;28;19913;-79
2021/08/19 11:00:11;;;;;;;;;;;19.20;99.90;;;;;;5056477;28;19909;-80
2021/08/19 11:02:40;;;;;;;;;;;19.00;99.90;;;;;;5049906;28;19915;-80
2021/08/19 11:05:11;;;;;;;;;;;19.00;99.90;;;;;;5043076;28;19913;-81
2021/08/19 11:07:43;;;;;;;;;;;19.00;99.90;;;;;;5047425;28;19999;-80
2021/08/19 11:10:09;;;;;;;;;;;19.10;99.90;;;;;;5051750;28;20031;-81
2021/08/19 11:12:36;;;;;;;;;;;19.40;99.90;;;;;;5049005;28;19952;-81
2021/08/19 11:15:02;;;;;;;;;;;19.60;99.90;;;;;;5066552;28;19912;-80
2021/08/19 11:17:28;;;;;;;;;;;19.80;99.90;;;;;;5055628;28;19981;-80
2021/08/19 11:19:54;;;;;;;;;;;19.70;99.90;;;;;;5054011;28;19983;-81
2021/08/19 11:22:20;;;;;;;;;;;19.70;99.90;;;;;;5057020;28;20362;-81
2021/08/19 11:24:46;;;;;;;;;;;19.60;99.90;;;;;;5049822;28;20003;-82
2021/08/19 11:27:11;;;;;;;;;;;19.50;99.90;;;;;;5052953;28;19944;-81
2021/08/19 11:29:38;;;;;;;;;;;19.50;99.90;;;;;;5054754;28;19908;-79
2021/08/19 11:32:04;;;;;;;;;;;19.80;99.90;;;;;;5052674;28;20389;-79
2021/08/19 11:34:30;;;;;;;;;;;20.10;99.90;;;;;;5050544;28;19919;-79
2021/08/19 11:36:55;;;;;;;;;;;20.30;99.90;;;;;;5045055;28;20541;-80
2021/08/19 11:39:26;;;;;;;;;;;20.20;99.90;;;;;;5044678;28;19999;-80
2021/08/19 11:41:55;;;;;;;;;;;20.30;99.90;;;;;;5047337;28;20397;-80
2021/08/19 11:44:21;;;;;;;;;;;20.10;99.90;;;;;;5053967;28;19940;-81
2021/08/19 11:46:46;;;;;;;;;;;20.30;99.90;;;;;;5055162;28;20408;-81
2021/08/19 11:49:13;;;;;;;;;;;20.40;99.90;;;;;;5054954;28;19909;-81
2021/08/19 11:51:40;;;;;;;;;;;20.60;99.90;;;;;;5051247;28;19973;-81
2021/08/19 11:54:06;;;;;;;;;;;21.00;99.90;;;;;;5073541;28;19916;-81
2021/08/19 11:56:36;;;;;;;;;;;20.90;99.90;;;;;;5053591;28;20289;-80
2021/08/19 11:59:10;;;;;;;;;;;20.60;99.90;;;;;;5056348;28;20253;-80
2021/08/19 12:01:36;;;;;;;;;;;20.00;99.90;;;;;;5049013;28;19908;-80
2021/08/19 12:04:03;;;;;;;;;;;20.00;99.90;;;;;;5050510;28;19926;-80
2021/08/19 12:06:30;;;;;;;;;;;20.20;99.90;;;;;;5042805;28;19941;-80
2021/08/19 12:08:57;;;;;;;;;;;20.40;99.90;;;;;;5049554;28;19912;-80
2021/08/19 12:11:24;;;;;;;;;;;20.50;99.90;;;;;;5053861;28;19912;-80
2021/08/19 12:13:51;;;;;;;;;;;20.30;99.90;;;;;;5041743;28;20266;-80
2021/08/19 12:16:20;;;;;;;;;;;19.90;99.90;;;;;;5042670;28;20052;-80
2021/08/19 12:19:02;;;;;;;;;;;19.90;99.90;;;;;;5061670;28;19912;-80
2021/08/19 12:21:27;;;;;;;;;;;19.80;99.90;;;;;;5047653;28;19916;-80
2021/08/19 12:24:06;;;;;;;;;;;19.60;99.90;;;;;;5053622;28;19916;-80
2021/08/19 12:26:36;;;;;;;;;;;19.60;99.90;;;;;;5044979;28;19917;-79
2021/08/19 12:29:02;;;;;;;;;;;19.70;99.90;;;;;;5045753;28;19951;-80
2021/08/19 12:32:03;;;;;;;;;;;19.90;99.90;;;;;;5024696;28;19921;-81
2021/08/19 12:34:29;;;;;;;;;;;19.90;99.90;;;;;;4938578;29;19915;-80
2021/08/19 12:37:04;;;;;;;;;;;20.00;99.90;;;;;;5011691;28;19962;-80
2021/08/19 12:39:34;;;;;;;;;;;20.00;99.90;;;;;;5037191;28;19913;-80
2021/08/19 12:42:08;;;;;;;;;;;20.30;99.90;;;;;;5035676;28;19910;-80
2021/08/19 12:44:35;;;;;;;;;;;20.40;99.90;;;;;;5034586;28;19913;-80
2021/08/19 12:47:00;;;;;;;;;;;20.60;99.90;;;;;;5028809;28;19963;-81
2021/08/19 12:49:36;;;;;;;;;;;21.00;99.90;;;;;;5032380;28;19909;-80
2021/08/19 12:52:11;;;;;;;;;;;20.80;99.90;;;;;;5039214;28;19909;-80
2021/08/19 12:54:37;;;;;;;;;;;20.60;99.90;;;;;;5033825;28;19913;-81
2021/08/19 12:57:03;;;;;;;;;;;20.30;99.90;;;;;;5033775;28;19913;-80
2021/08/19 12:59:28;;;;;;;;;;;20.00;99.90;;;;;;5032036;28;20339;-79
2021/08/19 13:01:57;;;;;;;;;;;19.80;99.90;;;;;;5030911;28;20420;-80
2021/08/19 13:04:22;;;;;;;;;;;19.60;99.90;;;;;;5047708;28;20185;-80
2021/08/19 13:06:47;;;;;;;;;;;19.60;99.90;;;;;;5034195;28;20220;-80
2021/08/19 13:09:13;;;;;;;;;;;19.50;99.90;;;;;;5047007;28;20610;-80
2021/08/19 13:11:38;;;;;;;;;;;19.40;99.90;;;;;;5022505;28;19932;-81
2021/08/19 13:14:04;;;;;;;;;;;19.40;99.90;;;;;;5044814;28;19922;-80
2021/08/19 13:16:29;;;;;;;;;;;19.30;99.90;;;;;;5040638;28;20432;-81
2021/08/19 13:18:55;;;;;;;;;;;19.10;99.90;;;;;;5050684;28;19913;-80
2021/08/19 13:21:20;;;;;;;;;;;19.00;99.90;;;;;;5036000;28;19923;-80
2021/08/19 13:23:46;;;;;;;;;;;19.00;99.90;;;;;;5042167;28;19936;-80
2021/08/19 13:26:12;;;;;;;;;;;19.00;99.90;;;;;;5033876;28;19917;-79
2021/08/19 13:28:37;;;;;;;;;;;18.90;99.90;;;;;;5028981;28;20293;-79
2021/08/19 13:31:05;;;;;;;;;;;19.10;99.90;;;;;;5020125;28;19909;-79
2021/08/19 13:33:31;;;;;;;;;;;19.10;99.90;;;;;;5049419;28;20350;-79
2021/08/19 13:35:56;;;;;;;;;;;19.40;99.90;;;;;;5044532;28;19909;-79
2021/08/19 13:38:22;;;;;;;;;;;19.50;99.90;;;;;;5037677;28;19917;-79
2021/08/19 13:40:47;;;;;;;;;;;19.70;99.90;;;;;;5017498;28;19971;-79
2021/08/19 13:43:13;;;;;;;;;;;19.90;99.90;;;;;;5046359;28;19909;-79
2021/08/19 13:45:39;;;;;;;;;;;20.10;99.90;;;;;;5051404;28;20157;-80
2021/08/19 13:48:05;;;;;;;;;;;20.10;99.90;;;;;;5050833;28;19987;-79
2021/08/19 13:50:30;;;;;;;;;;;20.10;99.90;;;;;;5035236;28;19909;-78
2021/08/19 13:52:56;;;;;;;;;;;20.20;99.90;;;;;;5022886;28;19920;-79
2021/08/19 13:55:22;;;;;;;;;;;20.10;99.90;;;;;;5030164;28;19913;-80
2021/08/19 13:57:47;;;;;;;;;;;20.20;99.90;;;;;;5031749;28;19913;-79
2021/08/19 14:00:13;;;;;;;;;;;21.00;99.90;;;;;;5023288;28;19920;-80
2021/08/19 14:02:39;;;;;;;;;;;22.10;99.90;;;;;;5027940;28;20259;-80
2021/08/19 14:05:04;;;;;;;;;;;22.40;99.90;;;;;;5044806;28;19917;-80
2021/08/19 14:07:30;;;;;;;;;;;22.90;99.90;;;;;;5028563;28;20377;-80
2021/08/19 14:09:56;;;;;;;;;;;22.90;99.90;;;;;;5037542;28;19917;-80
2021/08/19 14:12:22;;;;;;;;;;;22.80;99.90;;;;;;5029284;28;19909;-80